sensor_id;sensor_type;location;lat;lon;timestamp;pressure;altitude;pressure_sealevel;temperature;humidity
32083;BME280;18597;48.328;7.932;2023-12-22T00:01:47;98669.03;;;9.68;100.00
32083;BME280;18597;48.328;7.932;2023-12-22T00:04:14;98662.06;;;9.58;100.00
32083;BME280;18597;48.328;7.932;2023-12-22T00:06:40;98655.47;;;9.62;100.00
32083;BME280;18597;48.328;7.932;2023-12-22T00:09:07;98660.25;;;9.58;100.00
32083;BME280;18597;48.328;7.932;2023-12-22T00:11:33;98653.97;;;9.50;100.00
32083;BME280;18597;48.328;7.932;2023-12-22T00:13:58;98639.72;;;9.68;100.00
32083;BME280;18597;48.328;7.932;2023-12-22T00:16:24;98649.06;;;9.72;100.00
32083;BME280;18597;48.328;7.932;2023-12-22T00:18:50;98657.91;;;9.73;100.00
32083;BME280;18597;48.328;7.932;2023-12-22T00:21:16;98662.91;;;9.58;100.00
32083;BME280;18597;48.328;7.932;2023-12-22T00:23:42;98670.13;;;9.48;100.00
32083;BME280;18597;48.328;7.932;2023-12-22T00:26:07;98683.53;;;9.29;100.00
32083;BME280;18597;48.328;7.932;2023-12-22T00:28:33;98678.19;;;9.29;100.00
32083;BME280;18597;48.328;7.932;2023-12-22T00:30:59;98675.03;;;9.15;100.00
32083;BME280;18597;48.328;7.932;2023-12-22T00:33:25;98680.31;;;9.25;100.00
32083;BME280;18597;48.328;7.932;2023-12-22T00:35:52;98671.75;;;9.22;100.00
32083;BME280;18597;48.328;7.932;2023-12-22T00:38:18;98679.16;;;9.00;100.00
32083;BME280;18597;48.328;7.932;2023-12-22T00:40:43;98680.41;;;8.96;100.00
32083;BME280;18597;48.328;7.932;2023-12-22T00:43:09;98681.03;;;9.17;100.00
32083;BME280;18597;48.328;7.932;2023-12-22T00:45:35;98674.25;;;9.33;100.00
32083;BME280;18597;48.328;7.932;2023-12-22T00:48:01;98674.84;;;9.27;100.00
32083;BME280;18597;48.328;7.932;2023-12-22T00:50:26;98684.81;;;9.25;100.00
32083;BME280;18597;48.328;7.932;2023-12-22T00:52:52;98688.84;;;9.29;100.00
32083;BME280;18597;48.328;7.932;2023-12-22T00:55:18;98694.38;;;9.17;100.00
32083;BME280;18597;48.328;7.932;2023-12-22T00:57:44;98692.13;;;9.23;100.00
32083;BME280;18597;48.328;7.932;2023-12-22T01:00:10;98704.63;;;9.12;100.00
32083;BME280;18597;48.328;7.932;2023-12-22T01:02:38;98699.34;;;8.93;100.00
32083;BME280;18597;48.328;7.932;2023-12-22T01:05:05;98705.50;;;8.84;100.00
32083;BME280;18597;48.328;7.932;2023-12-22T01:07:30;98716.19;;;8.74;100.00
32083;BME280;18597;48.328;7.932;2023-12-22T01:09:56;98706.53;;;8.73;100.00
32083;BME280;18597;48.328;7.932;2023-12-22T01:12:27;98720.41;;;8.77;100.00
32083;BME280;18597;48.328;7.932;2023-12-22T01:14:55;98736.09;;;8.80;100.00
32083;BME280;18597;48.328;7.932;2023-12-22T01:17:21;98738.19;;;8.67;100.00
32083;BME280;18597;48.328;7.932;2023-12-22T01:19:47;98734.16;;;8.63;100.00
32083;BME280;18597;48.328;7.932;2023-12-22T01:22:13;98730.78;;;8.51;100.00
32083;BME280;18597;48.328;7.932;2023-12-22T01:24:39;98732.16;;;8.36;100.00
32083;BME280;18597;48.328;7.932;2023-12-22T01:27:09;98738.59;;;8.33;100.00
32083;BME280;18597;48.328;7.932;2023-12-22T01:29:35;98741.38;;;8.31;100.00
32083;BME280;18597;48.328;7.932;2023-12-22T01:32:01;98732.28;;;8.34;100.00
32083;BME280;18597;48.328;7.932;2023-12-22T01:34:26;98734.22;;;8.22;100.00
32083;BME280;18597;48.328;7.932;2023-12-22T01:36:52;98745.69;;;8.13;100.00
32083;BME280;18597;48.328;7.932;2023-12-22T01:39:18;98738.69;;;8.22;100.00
32083;BME280;18597;48.328;7.932;2023-12-22T01:41:44;98732.00;;;8.27;100.00
32083;BME280;18597;48.328;7.932;2023-12-22T01:44:09;98752.72;;;8.33;100.00
32083;BME280;18597;48.328;7.932;2023-12-22T01:46:36;98757.66;;;8.38;100.00
32083;BME280;18597;48.328;7.932;2023-12-22T01:49:02;98781.03;;;8.34;100.00
32083;BME280;18597;48.328;7.932;2023-12-22T01:51:32;98786.94;;;8.38;100.00
32083;BME280;18597;48.328;7.932;2023-12-22T01:53:59;98783.44;;;8.38;100.00
32083;BME280;18597;48.328;7.932;2023-12-22T01:56:25;98791.09;;;8.31;100.00
32083;BME280;18597;48.328;7.932;2023-12-22T01:58:55;98785.66;;;8.32;100.00
32083;BME280;18597;48.328;7.932;2023-12-22T02:01:23;98791.91;;;8.22;100.00
32083;BME280;18597;48.328;7.932;2023-12-22T02:03:51;98788.72;;;8.28;100.00
32083;BME280;18597;48.328;7.932;2023-12-22T02:06:19;98793.66;;;8.42;100.00
32083;BME280;18597;48.328;7.932;2023-12-22T02:08:47;98797.97;;;8.33;100.00
32083;BME280;18597;48.328;7.932;2023-12-22T02:11:14;98795.72;;;8.29;100.00
32083;BME280;18597;48.328;7.932;2023-12-22T02:13:42;98795.41;;;8.22;100.00
32083;BME280;18597;48.328;7.932;2023-12-22T02:16:31;98787.22;;;8.35;100.00
32083;BME280;18597;48.328;7.932;2023-12-22T02:19:04;98783.66;;;8.25;100.00
32083;BME280;18597;48.328;7.932;2023-12-22T02:21:32;98802.84;;;8.28;100.00
32083;BME280;18597;48.328;7.932;2023-12-22T02:23:58;98790.38;;;8.29;100.00
32083;BME280;18597;48.328;7.932;2023-12-22T02:26:34;98812.00;;;8.45;100.00
32083;BME280;18597;48.328;7.932;2023-12-22T02:29:03;98803.72;;;8.39;100.00
32083;BME280;18597;48.328;7.932;2023-12-22T02:31:40;98802.34;;;8.44;100.00
32083;BME280;18597;48.328;7.932;2023-12-22T02:34:16;98808.81;;;8.51;100.00
32083;BME280;18597;48.328;7.932;2023-12-22T02:36:44;98795.66;;;8.59;100.00
32083;BME280;18597;48.328;7.932;2023-12-22T02:39:11;98788.38;;;8.61;100.00
32083;BME280;18597;48.328;7.932;2023-12-22T02:41:38;98791.31;;;8.68;100.00
32083;BME280;18597;48.328;7.932;2023-12-22T02:44:04;98791.31;;;8.78;100.00
32083;BME280;18597;48.328;7.932;2023-12-22T02:46:30;98794.69;;;8.80;100.00
32083;BME280;18597;48.328;7.932;2023-12-22T02:48:56;98787.94;;;8.76;100.00
32083;BME280;18597;48.328;7.932;2023-12-22T02:51:22;98793.00;;;8.69;100.00
32083;BME280;18597;48.328;7.932;2023-12-22T02:53:48;98795.38;;;8.82;100.00
32083;BME280;18597;48.328;7.932;2023-12-22T02:56:13;98812.47;;;8.89;100.00
32083;BME280;18597;48.328;7.932;2023-12-22T02:58:39;98809.66;;;8.81;100.00
32083;BME280;18597;48.328;7.932;2023-12-22T03:01:05;98801.25;;;8.76;100.00
32083;BME280;18597;48.328;7.932;2023-12-22T03:03:31;98794.09;;;8.67;100.00
32083;BME280;18597;48.328;7.932;2023-12-22T03:05:57;98800.97;;;8.59;100.00
32083;BME280;18597;48.328;7.932;2023-12-22T03:08:22;98812.31;;;8.42;100.00
32083;BME280;18597;48.328;7.932;2023-12-22T03:10:48;98799.00;;;8.42;100.00
32083;BME280;18597;48.328;7.932;2023-12-22T03:13:14;98801.84;;;8.20;100.00
32083;BME280;18597;48.328;7.932;2023-12-22T03:15:40;98790.22;;;8.11;100.00
32083;BME280;18597;48.328;7.932;2023-12-22T03:18:06;98792.84;;;8.01;100.00
32083;BME280;18597;48.328;7.932;2023-12-22T03:20:31;98790.72;;;7.95;100.00
32083;BME280;18597;48.328;7.932;2023-12-22T03:22:58;98797.16;;;7.93;100.00
32083;BME280;18597;48.328;7.932;2023-12-22T03:25:23;98826.78;;;7.78;100.00
32083;BME280;18597;48.328;7.932;2023-12-22T03:27:50;98816.31;;;7.87;100.00
32083;BME280;18597;48.328;7.932;2023-12-22T03:30:16;98821.34;;;7.90;100.00
32083;BME280;18597;48.328;7.932;2023-12-22T03:32:42;98806.06;;;7.82;100.00
32083;BME280;18597;48.328;7.932;2023-12-22T03:35:07;98808.84;;;7.71;100.00
32083;BME280;18597;48.328;7.932;2023-12-22T03:37:34;98807.75;;;7.53;100.00
32083;BME280;18597;48.328;7.932;2023-12-22T03:40:00;98801.38;;;7.65;100.00
32083;BME280;18597;48.328;7.932;2023-12-22T03:42:25;98798.22;;;7.71;100.00
32083;BME280;18597;48.328;7.932;2023-12-22T03:44:51;98814.69;;;7.65;100.00
32083;BME280;18597;48.328;7.932;2023-12-22T03:47:17;98821.50;;;7.58;100.00
32083;BME280;18597;48.328;7.932;2023-12-22T03:49:43;98819.34;;;7.51;100.00
32083;BME280;18597;48.328;7.932;2023-12-22T03:52:08;98808.22;;;7.58;100.00
32083;BME280;18597;48.328;7.932;2023-12-22T03:54:34;98812.88;;;7.65;100.00
32083;BME280;18597;48.328;7.932;2023-12-22T03:57:00;98815.53;;;7.65;100.00
32083;BME280;18597;48.328;7.932;2023-12-22T03:59:26;98810.03;;;7.57;100.00
32083;BME280;18597;48.328;7.932;2023-12-22T04:01:52;98805.31;;;7.70;100.00
32083;BME280;18597;48.328;7.932;2023-12-22T04:04:19;98814.22;;;7.90;100.00
32083;BME280;18597;48.328;7.932;2023-12-22T04:06:45;98810.88;;;7.88;100.00
32083;BME280;18597;48.328;7.932;2023-12-22T04:09:11;98823.63;;;7.94;100.00
32083;BME280;18597;48.328;7.932;2023-12-22T04:11:37;98832.84;;;7.90;100.00
32083;BME280;18597;48.328;7.932;2023-12-22T04:14:03;98833.69;;;7.91;100.00
32083;BME280;18597;48.328;7.932;2023-12-22T04:16:28;98851.09;;;7.74;100.00
32083;BME280;18597;48.328;7.932;2023-12-22T04:18:54;98838.13;;;7.81;100.00
32083;BME280;18597;48.328;7.932;2023-12-22T04:21:20;98844.63;;;7.97;100.00
32083;BME280;18597;48.328;7.932;2023-12-22T04:23:46;98860.09;;;7.83;100.00
32083;BME280;18597;48.328;7.932;2023-12-22T04:26:11;98856.78;;;7.90;100.00
32083;BME280;18597;48.328;7.932;2023-12-22T04:28:37;98858.31;;;7.93;100.00
32083;BME280;18597;48.328;7.932;2023-12-22T04:31:03;98864.09;;;7.98;100.00
32083;BME280;18597;48.328;7.932;2023-12-22T04:33:29;98848.16;;;8.07;100.00
32083;BME280;18597;48.328;7.932;2023-12-22T04:35:55;98856.59;;;8.13;100.00
32083;BME280;18597;48.328;7.932;2023-12-22T04:38:21;98863.41;;;8.36;100.00
32083;BME280;18597;48.328;7.932;2023-12-22T04:40:46;98862.03;;;8.51;100.00
32083;BME280;18597;48.328;7.932;2023-12-22T04:43:12;98853.91;;;8.43;100.00
32083;BME280;18597;48.328;7.932;2023-12-22T04:45:38;98853.53;;;8.57;100.00
32083;BME280;18597;48.328;7.932;2023-12-22T04:48:05;98854.75;;;8.53;100.00
32083;BME280;18597;48.328;7.932;2023-12-22T04:50:30;98854.09;;;8.71;100.00
32083;BME280;18597;48.328;7.932;2023-12-22T04:52:56;98843.69;;;8.48;100.00
32083;BME280;18597;48.328;7.932;2023-12-22T04:55:22;98837.25;;;8.60;100.00
32083;BME280;18597;48.328;7.932;2023-12-22T04:57:48;98859.28;;;8.63;100.00
32083;BME280;18597;48.328;7.932;2023-12-22T05:00:14;98850.47;;;8.62;100.00
32083;BME280;18597;48.328;7.932;2023-12-22T05:02:40;98851.75;;;8.77;100.00
32083;BME280;18597;48.328;7.932;2023-12-22T05:05:07;98853.69;;;8.85;100.00
32083;BME280;18597;48.328;7.932;2023-12-22T05:07:34;98848.09;;;8.78;100.00
32083;BME280;18597;48.328;7.932;2023-12-22T05:10:00;98848.94;;;8.79;100.00
32083;BME280;18597;48.328;7.932;2023-12-22T05:12:26;98857.47;;;8.73;100.00
32083;BME280;18597;48.328;7.932;2023-12-22T05:14:52;98863.78;;;8.72;100.00
32083;BME280;18597;48.328;7.932;2023-12-22T05:17:18;98863.78;;;8.81;100.00
32083;BME280;18597;48.328;7.932;2023-12-22T05:19:44;98861.84;;;8.93;100.00
32083;BME280;18597;48.328;7.932;2023-12-22T05:22:09;98875.31;;;9.01;100.00
32083;BME280;18597;48.328;7.932;2023-12-22T05:24:37;98858.59;;;8.99;100.00
32083;BME280;18597;48.328;7.932;2023-12-22T05:27:04;98863.66;;;9.12;100.00
32083;BME280;18597;48.328;7.932;2023-12-22T05:29:30;98878.38;;;9.06;100.00
32083;BME280;18597;48.328;7.932;2023-12-22T05:31:56;98880.19;;;8.96;100.00
32083;BME280;18597;48.328;7.932;2023-12-22T05:34:21;98879.91;;;8.99;100.00
32083;BME280;18597;48.328;7.932;2023-12-22T05:36:47;98871.66;;;9.02;100.00
32083;BME280;18597;48.328;7.932;2023-12-22T05:39:13;98891.69;;;9.06;100.00
32083;BME280;18597;48.328;7.932;2023-12-22T05:41:39;98888.03;;;8.98;100.00
32083;BME280;18597;48.328;7.932;2023-12-22T05:44:05;98885.97;;;9.01;100.00
32083;BME280;18597;48.328;7.932;2023-12-22T05:46:37;98899.69;;;9.06;100.00
32083;BME280;18597;48.328;7.932;2023-12-22T05:49:04;98898.16;;;8.94;100.00
32083;BME280;18597;48.328;7.932;2023-12-22T05:51:37;98901.78;;;9.03;100.00
32083;BME280;18597;48.328;7.932;2023-12-22T05:54:05;98899.53;;;8.98;100.00
32083;BME280;18597;48.328;7.932;2023-12-22T05:56:30;98909.09;;;9.01;100.00
32083;BME280;18597;48.328;7.932;2023-12-22T05:58:56;98909.63;;;8.95;100.00
32083;BME280;18597;48.328;7.932;2023-12-22T06:01:22;98909.94;;;9.01;100.00
32083;BME280;18597;48.328;7.932;2023-12-22T06:03:48;98923.94;;;8.94;100.00
32083;BME280;18597;48.328;7.932;2023-12-22T06:06:14;98925.47;;;8.96;100.00
32083;BME280;18597;48.328;7.932;2023-12-22T06:08:40;98924.94;;;9.02;100.00
32083;BME280;18597;48.328;7.932;2023-12-22T06:11:06;98928.97;;;8.87;100.00
32083;BME280;18597;48.328;7.932;2023-12-22T06:13:32;98936.84;;;8.98;100.00
32083;BME280;18597;48.328;7.932;2023-12-22T06:15:58;98947.94;;;9.03;100.00
32083;BME280;18597;48.328;7.932;2023-12-22T06:18:23;98940.34;;;8.99;100.00
32083;BME280;18597;48.328;7.932;2023-12-22T06:20:50;98951.28;;;8.86;100.00
32083;BME280;18597;48.328;7.932;2023-12-22T06:23:16;98948.75;;;9.04;100.00
32083;BME280;18597;48.328;7.932;2023-12-22T06:25:42;98945.13;;;8.95;100.00
32083;BME280;18597;48.328;7.932;2023-12-22T06:28:08;98945.66;;;8.89;100.00
32083;BME280;18597;48.328;7.932;2023-12-22T06:30:33;98938.81;;;8.96;100.00
32083;BME280;18597;48.328;7.932;2023-12-22T06:32:59;98945.25;;;9.03;100.00
32083;BME280;18597;48.328;7.932;2023-12-22T06:35:25;98931.78;;;8.95;100.00
32083;BME280;18597;48.328;7.932;2023-12-22T06:37:51;98925.03;;;8.91;100.00
32083;BME280;18597;48.328;7.932;2023-12-22T06:40:18;98945.25;;;8.94;100.00
32083;BME280;18597;48.328;7.932;2023-12-22T06:42:45;98956.38;;;9.08;100.00
32083;BME280;18597;48.328;7.932;2023-12-22T06:45:10;98959.13;;;8.97;100.00
32083;BME280;18597;48.328;7.932;2023-12-22T06:47:37;98960.34;;;8.74;100.00
32083;BME280;18597;48.328;7.932;2023-12-22T06:50:03;98956.06;;;8.52;100.00
32083;BME280;18597;48.328;7.932;2023-12-22T06:52:29;98958.72;;;8.52;100.00
32083;BME280;18597;48.328;7.932;2023-12-22T06:54:56;98963.34;;;8.29;100.00
32083;BME280;18597;48.328;7.932;2023-12-22T06:57:22;98961.75;;;8.38;100.00
32083;BME280;18597;48.328;7.932;2023-12-22T06:59:48;98964.84;;;8.22;100.00
32083;BME280;18597;48.328;7.932;2023-12-22T07:02:15;98963.09;;;8.32;100.00
32083;BME280;18597;48.328;7.932;2023-12-22T07:05:03;98968.97;;;8.26;100.00
32083;BME280;18597;48.328;7.932;2023-12-22T07:07:48;98974.47;;;8.34;100.00
32083;BME280;18597;48.328;7.932;2023-12-22T07:10:14;98973.75;;;8.32;100.00
32083;BME280;18597;48.328;7.932;2023-12-22T07:12:40;98978.94;;;8.33;100.00
32083;BME280;18597;48.328;7.932;2023-12-22T07:15:06;98976.81;;;8.27;100.00
32083;BME280;18597;48.328;7.932;2023-12-22T07:17:34;98979.16;;;8.42;100.00
32083;BME280;18597;48.328;7.932;2023-12-22T07:20:00;98983.44;;;8.64;100.00
32083;BME280;18597;48.328;7.932;2023-12-22T07:22:28;98970.59;;;8.78;100.00
32083;BME280;18597;48.328;7.932;2023-12-22T07:24:55;98974.09;;;8.79;100.00
32083;BME280;18597;48.328;7.932;2023-12-22T07:27:21;98987.13;;;8.82;100.00
32083;BME280;18597;48.328;7.932;2023-12-22T07:29:47;98994.78;;;8.66;100.00
32083;BME280;18597;48.328;7.932;2023-12-22T07:32:13;98996.63;;;8.65;100.00
32083;BME280;18597;48.328;7.932;2023-12-22T07:34:39;98992.75;;;8.79;100.00
32083;BME280;18597;48.328;7.932;2023-12-22T07:37:05;98996.50;;;8.76;100.00
32083;BME280;18597;48.328;7.932;2023-12-22T07:39:30;98991.91;;;8.78;100.00
32083;BME280;18597;48.328;7.932;2023-12-22T07:41:56;99016.25;;;8.74;100.00
32083;BME280;18597;48.328;7.932;2023-12-22T07:44:22;98999.84;;;8.69;100.00
32083;BME280;18597;48.328;7.932;2023-12-22T07:46:57;99018.75;;;8.66;100.00
32083;BME280;18597;48.328;7.932;2023-12-22T07:49:24;99016.47;;;8.61;100.00
32083;BME280;18597;48.328;7.932;2023-12-22T07:51:52;99019.28;;;8.59;100.00
32083;BME280;18597;48.328;7.932;2023-12-22T07:54:17;99005.84;;;8.61;100.00
32083;BME280;18597;48.328;7.932;2023-12-22T07:56:44;99007.22;;;8.55;100.00
32083;BME280;18597;48.328;7.932;2023-12-22T07:59:09;99016.91;;;8.56;100.00
32083;BME280;18597;48.328;7.932;2023-12-22T08:01:35;99010.25;;;8.72;100.00
32083;BME280;18597;48.328;7.932;2023-12-22T08:04:01;99007.22;;;8.55;100.00
32083;BME280;18597;48.328;7.932;2023-12-22T08:06:27;99010.88;;;8.54;100.00
32083;BME280;18597;48.328;7.932;2023-12-22T08:08:52;99010.97;;;8.53;100.00
32083;BME280;18597;48.328;7.932;2023-12-22T08:11:20;99015.47;;;8.52;100.00
32083;BME280;18597;48.328;7.932;2023-12-22T08:13:47;99025.03;;;8.55;100.00
32083;BME280;18597;48.328;7.932;2023-12-22T08:16:12;99025.44;;;8.60;100.00
32083;BME280;18597;48.328;7.932;2023-12-22T08:18:38;99033.41;;;8.50;100.00
32083;BME280;18597;48.328;7.932;2023-12-22T08:21:04;99037.94;;;8.39;100.00
32083;BME280;18597;48.328;7.932;2023-12-22T08:23:31;99041.00;;;8.34;100.00
32083;BME280;18597;48.328;7.932;2023-12-22T08:25:57;99056.06;;;8.24;100.00
32083;BME280;18597;48.328;7.932;2023-12-22T08:28:23;99054.81;;;8.07;100.00
32083;BME280;18597;48.328;7.932;2023-12-22T08:30:50;99062.16;;;8.15;100.00
32083;BME280;18597;48.328;7.932;2023-12-22T08:33:15;99056.38;;;8.10;100.00
32083;BME280;18597;48.328;7.932;2023-12-22T08:35:41;99057.88;;;8.02;100.00
32083;BME280;18597;48.328;7.932;2023-12-22T08:38:08;99072.06;;;7.92;100.00
32083;BME280;18597;48.328;7.932;2023-12-22T08:40:33;99070.78;;;7.86;100.00
32083;BME280;18597;48.328;7.932;2023-12-22T08:43:01;99066.16;;;7.88;100.00
32083;BME280;18597;48.328;7.932;2023-12-22T08:45:28;99078.41;;;7.79;100.00
32083;BME280;18597;48.328;7.932;2023-12-22T08:47:55;99066.09;;;7.78;100.00
32083;BME280;18597;48.328;7.932;2023-12-22T08:50:21;99075.50;;;7.83;100.00
32083;BME280;18597;48.328;7.932;2023-12-22T08:52:47;99077.25;;;7.93;100.00
32083;BME280;18597;48.328;7.932;2023-12-22T08:55:13;99082.19;;;7.98;100.00
32083;BME280;18597;48.328;7.932;2023-12-22T08:57:40;99077.97;;;7.95;100.00
32083;BME280;18597;48.328;7.932;2023-12-22T09:00:06;99081.34;;;7.97;100.00
32083;BME280;18597;48.328;7.932;2023-12-22T09:02:33;99074.91;;;8.00;100.00
32083;BME280;18597;48.328;7.932;2023-12-22T09:04:58;99064.81;;;8.15;100.00
32083;BME280;18597;48.328;7.932;2023-12-22T09:07:24;99063.31;;;8.22;100.00
32083;BME280;18597;48.328;7.932;2023-12-22T09:09:50;99064.44;;;8.19;100.00
32083;BME280;18597;48.328;7.932;2023-12-22T09:12:16;99064.91;;;8.24;100.00
32083;BME280;18597;48.328;7.932;2023-12-22T09:14:42;99052.53;;;8.23;100.00
32083;BME280;18597;48.328;7.932;2023-12-22T09:17:08;99053.13;;;8.27;100.00
32083;BME280;18597;48.328;7.932;2023-12-22T09:19:34;99056.50;;;8.29;100.00
32083;BME280;18597;48.328;7.932;2023-12-22T09:22:00;99051.31;;;8.27;100.00
32083;BME280;18597;48.328;7.932;2023-12-22T09:24:25;99053.00;;;8.28;100.00
32083;BME280;18597;48.328;7.932;2023-12-22T09:26:51;99045.38;;;8.35;100.00
32083;BME280;18597;48.328;7.932;2023-12-22T09:29:17;99035.22;;;8.29;100.00
32083;BME280;18597;48.328;7.932;2023-12-22T09:31:43;99045.22;;;8.37;100.00
32083;BME280;18597;48.328;7.932;2023-12-22T09:34:09;99042.44;;;8.38;100.00
32083;BME280;18597;48.328;7.932;2023-12-22T09:36:35;99044.84;;;8.41;100.00
32083;BME280;18597;48.328;7.932;2023-12-22T09:39:01;99031.03;;;8.47;100.00
32083;BME280;18597;48.328;7.932;2023-12-22T09:41:27;99033.84;;;8.55;100.00
32083;BME280;18597;48.328;7.932;2023-12-22T09:43:56;99029.31;;;8.46;100.00
32083;BME280;18597;48.328;7.932;2023-12-22T09:46:23;99039.06;;;8.67;100.00
32083;BME280;18597;48.328;7.932;2023-12-22T09:48:52;99056.50;;;8.71;100.00
32083;BME280;18597;48.328;7.932;2023-12-22T09:51:19;99053.81;;;8.71;100.00
32083;BME280;18597;48.328;7.932;2023-12-22T09:53:46;99058.03;;;8.73;100.00
32083;BME280;18597;48.328;7.932;2023-12-22T09:56:14;99044.88;;;8.51;100.00
32083;BME280;18597;48.328;7.932;2023-12-22T09:58:41;99048.81;;;8.47;100.00
32083;BME280;18597;48.328;7.932;2023-12-22T10:01:07;99047.50;;;8.41;100.00
32083;BME280;18597;48.328;7.932;2023-12-22T10:03:34;99047.66;;;8.28;100.00
32083;BME280;18597;48.328;7.932;2023-12-22T10:06:00;99040.22;;;8.43;100.00
32083;BME280;18597;48.328;7.932;2023-12-22T10:08:27;99026.13;;;8.31;100.00
32083;BME280;18597;48.328;7.932;2023-12-22T10:10:54;99033.94;;;8.44;100.00
32083;BME280;18597;48.328;7.932;2023-12-22T10:13:20;99033.25;;;8.52;100.00
32083;BME280;18597;48.328;7.932;2023-12-22T10:15:46;99027.69;;;8.55;100.00
32083;BME280;18597;48.328;7.932;2023-12-22T10:18:12;99036.94;;;8.60;100.00
32083;BME280;18597;48.328;7.932;2023-12-22T10:20:39;99041.53;;;8.49;100.00
32083;BME280;18597;48.328;7.932;2023-12-22T10:23:05;99026.22;;;8.41;100.00
32083;BME280;18597;48.328;7.932;2023-12-22T10:25:31;99019.25;;;8.29;100.00
32083;BME280;18597;48.328;7.932;2023-12-22T10:27:58;99013.03;;;8.19;100.00
32083;BME280;18597;48.328;7.932;2023-12-22T10:30:24;99019.72;;;8.13;100.00
32083;BME280;18597;48.328;7.932;2023-12-22T10:32:51;99011.91;;;8.00;100.00
32083;BME280;18597;48.328;7.932;2023-12-22T10:35:17;99014.81;;;8.09;100.00
32083;BME280;18597;48.328;7.932;2023-12-22T10:37:45;98998.47;;;8.23;100.00
32083;BME280;18597;48.328;7.932;2023-12-22T10:40:12;98994.34;;;8.09;100.00
32083;BME280;18597;48.328;7.932;2023-12-22T10:42:40;98997.78;;;8.21;100.00
32083;BME280;18597;48.328;7.932;2023-12-22T10:45:07;98981.75;;;8.11;100.00
32083;BME280;18597;48.328;7.932;2023-12-22T10:47:33;98975.28;;;8.04;100.00
32083;BME280;18597;48.328;7.932;2023-12-22T10:50:03;98982.16;;;8.06;100.00
32083;BME280;18597;48.328;7.932;2023-12-22T10:52:30;98975.47;;;8.12;100.00
32083;BME280;18597;48.328;7.932;2023-12-22T10:54:58;98977.00;;;8.15;100.00
32083;BME280;18597;48.328;7.932;2023-12-22T10:57:24;98974.09;;;8.18;100.00
32083;BME280;18597;48.328;7.932;2023-12-22T10:59:53;98975.97;;;8.27;100.00
32083;BME280;18597;48.328;7.932;2023-12-22T11:02:22;98956.06;;;8.31;100.00
32083;BME280;18597;48.328;7.932;2023-12-22T11:05:01;98956.66;;;8.34;100.00
32083;BME280;18597;48.328;7.932;2023-12-22T11:07:28;98969.06;;;8.45;100.00
32083;BME280;18597;48.328;7.932;2023-12-22T11:09:56;98967.91;;;8.38;100.00
32083;BME280;18597;48.328;7.932;2023-12-22T11:12:28;98959.16;;;8.26;100.00
32083;BME280;18597;48.328;7.932;2023-12-22T11:14:56;98955.50;;;8.27;100.00
32083;BME280;18597;48.328;7.932;2023-12-22T11:17:23;98950.25;;;8.37;100.00
32083;BME280;18597;48.328;7.932;2023-12-22T11:19:50;98937.25;;;8.44;100.00
32083;BME280;18597;48.328;7.932;2023-12-22T11:22:18;98927.03;;;8.39;100.00
32083;BME280;18597;48.328;7.932;2023-12-22T11:24:48;98929.19;;;8.24;100.00
32083;BME280;18597;48.328;7.932;2023-12-22T11:27:18;98925.13;;;8.30;100.00
32083;BME280;18597;48.328;7.932;2023-12-22T11:29:49;98913.00;;;8.37;100.00
32083;BME280;18597;48.328;7.932;2023-12-22T11:32:18;98915.22;;;8.32;100.00
32083;BME280;18597;48.328;7.932;2023-12-22T11:34:46;98915.22;;;8.32;100.00
32083;BME280;18597;48.328;7.932;2023-12-22T11:37:15;98925.47;;;8.37;100.00
32083;BME280;18597;48.328;7.932;2023-12-22T11:39:42;98907.94;;;8.34;100.00
32083;BME280;18597;48.328;7.932;2023-12-22T11:42:13;98916.88;;;8.33;100.00
32083;BME280;18597;48.328;7.932;2023-12-22T11:44:40;98913.38;;;8.32;100.00
32083;BME280;18597;48.328;7.932;2023-12-22T11:47:08;98912.19;;;8.46;100.00
32083;BME280;18597;48.328;7.932;2023-12-22T11:49:36;98900.66;;;8.36;100.00
32083;BME280;18597;48.328;7.932;2023-12-22T11:52:24;98901.38;;;8.38;100.00
32083;BME280;18597;48.328;7.932;2023-12-22T11:54:52;98903.59;;;8.33;100.00
32083;BME280;18597;48.328;7.932;2023-12-22T11:57:37;98897.03;;;8.37;100.00
32083;BME280;18597;48.328;7.932;2023-12-22T12:00:37;98893.66;;;8.35;100.00
32083;BME280;18597;48.328;7.932;2023-12-22T12:02:57;98888.91;;;8.39;100.00
32083;BME280;18597;48.328;7.932;2023-12-22T12:05:23;98883.09;;;8.54;100.00
32083;BME280;18597;48.328;7.932;2023-12-22T12:07:49;98876.34;;;8.50;100.00
32083;BME280;18597;48.328;7.932;2023-12-22T12:10:51;98871.31;;;8.47;100.00
32083;BME280;18597;48.328;7.932;2023-12-22T12:13:23;98856.47;;;8.54;100.00
32083;BME280;18597;48.328;7.932;2023-12-22T12:15:53;98856.19;;;8.57;100.00
32083;BME280;18597;48.328;7.932;2023-12-22T12:18:22;98866.50;;;8.41;100.00
32083;BME280;18597;48.328;7.932;2023-12-22T12:20:49;98866.22;;;8.44;100.00
32083;BME280;18597;48.328;7.932;2023-12-22T12:23:16;98867.59;;;8.39;100.00
32083;BME280;18597;48.328;7.932;2023-12-22T12:25:42;98854.88;;;8.42;100.00
32083;BME280;18597;48.328;7.932;2023-12-22T12:28:09;98842.41;;;8.43;100.00
32083;BME280;18597;48.328;7.932;2023-12-22T12:30:37;98847.03;;;8.41;100.00
32083;BME280;18597;48.328;7.932;2023-12-22T12:33:12;98846.63;;;8.45;100.00
32083;BME280;18597;48.328;7.932;2023-12-22T12:35:40;98836.69;;;8.47;100.00
32083;BME280;18597;48.328;7.932;2023-12-22T12:38:06;98839.63;;;8.44;100.00
32083;BME280;18597;48.328;7.932;2023-12-22T12:40:32;98844.97;;;8.54;100.00
32083;BME280;18597;48.328;7.932;2023-12-22T12:43:02;98838.09;;;8.51;100.00
32083;BME280;18597;48.328;7.932;2023-12-22T12:45:28;98834.59;;;8.51;100.00
32083;BME280;18597;48.328;7.932;2023-12-22T12:48:00;98830.38;;;8.48;100.00
32083;BME280;18597;48.328;7.932;2023-12-22T12:50:28;98828.03;;;8.55;100.00
32083;BME280;18597;48.328;7.932;2023-12-22T12:52:55;98822.69;;;8.55;100.00
32083;BME280;18597;48.328;7.932;2023-12-22T12:55:23;98818.63;;;8.51;100.00
32083;BME280;18597;48.328;7.932;2023-12-22T12:57:50;98824.09;;;8.59;100.00
32083;BME280;18597;48.328;7.932;2023-12-22T13:00:24;98823.41;;;8.57;100.00